createdAt,value
2024-02-13T00:00:01.171Z,1.23
2024-02-13T00:02:28.140Z,0.80
2024-02-13T00:04:57.715Z,0.80
2024-02-13T00:07:24.643Z,0.80
2024-02-13T00:09:51.532Z,0.80
2024-02-13T00:12:18.405Z,1.10
2024-02-13T00:14:47.310Z,0.95
2024-02-13T00:17:15.466Z,0.60
2024-02-13T00:19:43.893Z,0.80
2024-02-13T00:22:13.934Z,1.00
2024-02-13T00:24:40.892Z,1.33
2024-02-13T00:27:07.919Z,1.00
2024-02-13T00:29:34.830Z,0.82
2024-02-13T00:32:02.209Z,1.17
2024-02-13T00:34:29.087Z,0.80
2024-02-13T00:36:56.964Z,0.80
2024-02-13T00:39:25.533Z,0.80
2024-02-13T00:41:52.775Z,0.70
2024-02-13T00:44:21.054Z,0.75
2024-02-13T00:46:49.809Z,0.88
2024-02-13T00:49:16.729Z,0.73
2024-02-13T00:51:43.622Z,0.80
2024-02-13T00:54:15.049Z,0.60
2024-02-13T00:56:42.468Z,0.50
2024-02-13T00:59:09.543Z,0.70
2024-02-13T01:01:36.869Z,0.60
2024-02-13T01:04:07.864Z,0.52
2024-02-13T01:06:35.198Z,0.57
2024-02-13T01:09:06.631Z,0.40
2024-02-13T01:11:34.726Z,0.57
2024-02-13T01:14:02.484Z,0.63
2024-02-13T01:16:29.707Z,0.82
2024-02-13T01:18:57.626Z,0.60
2024-02-13T01:21:24.503Z,0.70
2024-02-13T01:23:51.501Z,0.70
2024-02-13T01:26:19.885Z,0.75
2024-02-13T01:28:47.181Z,0.50
2024-02-13T01:31:14.483Z,0.30
2024-02-13T01:33:42.658Z,0.70
2024-02-13T01:36:11.091Z,0.57
2024-02-13T01:38:38.682Z,0.47
2024-02-13T01:41:05.703Z,0.40
2024-02-13T01:43:32.936Z,0.50
2024-02-13T01:46:00.826Z,0.40
2024-02-13T01:48:28.195Z,0.80
2024-02-13T01:50:57.405Z,0.40
2024-02-13T01:53:24.688Z,0.50
2024-02-13T01:55:51.624Z,0.60
2024-02-13T01:58:20.588Z,0.40
2024-02-13T02:00:49.048Z,0.68
2024-02-13T02:03:18.993Z,0.60
2024-02-13T02:05:46.065Z,0.30
2024-02-13T02:08:15.515Z,0.50
2024-02-13T02:10:45.709Z,0.40
2024-02-13T02:13:15.915Z,0.60
2024-02-13T02:15:42.840Z,0.68
2024-02-13T02:18:11.472Z,0.55
2024-02-13T02:20:38.556Z,0.30
2024-02-13T02:23:05.445Z,0.40
2024-02-13T02:25:32.297Z,0.40
2024-02-13T02:27:59.221Z,0.30
2024-02-13T02:30:26.109Z,0.43
2024-02-13T02:32:53.029Z,0.40
2024-02-13T02:35:20.117Z,0.57
2024-02-13T02:37:52.103Z,0.57
2024-02-13T02:40:19.987Z,0.60
2024-02-13T02:42:48.243Z,0.60
2024-02-13T02:45:16.709Z,0.40
2024-02-13T02:47:44.026Z,0.50
2024-02-13T02:50:13.665Z,0.55
2024-02-13T02:52:40.610Z,0.70
2024-02-13T02:55:07.727Z,0.50
2024-02-13T02:57:35.868Z,0.38
2024-02-13T03:00:09.913Z,0.47
2024-02-13T03:02:41.888Z,0.45
2024-02-13T03:05:12.546Z,0.30
2024-02-13T03:07:39.718Z,0.40
2024-02-13T03:10:11.541Z,0.45
2024-02-13T03:12:39.006Z,0.60
2024-02-13T03:15:05.986Z,0.40
2024-02-13T03:17:33.084Z,0.60
2024-02-13T03:20:02.250Z,0.35
2024-02-13T03:22:29.602Z,0.30
2024-02-13T03:24:56.509Z,0.30
2024-02-13T03:27:23.589Z,0.35
2024-02-13T03:29:50.745Z,0.47
2024-02-13T03:32:18.000Z,0.30
2024-02-13T03:34:45.048Z,0.45
2024-02-13T03:37:11.954Z,0.85
2024-02-13T03:39:39.081Z,0.50
2024-02-13T03:42:06.088Z,0.57
2024-02-13T03:44:33.251Z,0.40
2024-02-13T03:47:00.712Z,0.40
2024-02-13T03:49:28.378Z,0.22
2024-02-13T03:51:55.374Z,0.20
2024-02-13T03:54:22.222Z,0.17
2024-02-13T03:56:49.242Z,0.47
2024-02-13T03:59:17.040Z,0.30
2024-02-13T04:01:44.772Z,0.52
2024-02-13T04:04:11.666Z,0.55
2024-02-13T04:06:38.633Z,0.35
2024-02-13T04:09:08.378Z,0.30
2024-02-13T04:11:36.996Z,0.47
2024-02-13T04:14:04.082Z,0.75
2024-02-13T04:16:31.778Z,0.30
2024-02-13T04:19:00.198Z,0.30
2024-02-13T04:21:27.247Z,0.30
2024-02-13T04:23:54.164Z,0.70
2024-02-13T04:26:30.835Z,0.40
2024-02-13T04:29:03.404Z,0.10
2024-02-13T04:31:30.281Z,0.60
2024-02-13T04:33:57.305Z,0.30
2024-02-13T04:36:25.002Z,0.30
2024-02-13T04:38:52.009Z,0.57
2024-02-13T04:41:21.611Z,0.52
2024-02-13T04:43:48.920Z,0.20
2024-02-13T04:46:16.202Z,0.28
2024-02-13T04:48:43.170Z,0.10
2024-02-13T04:51:10.528Z,0.40
2024-02-13T04:53:38.628Z,0.32
2024-02-13T04:56:06.072Z,0.30
2024-02-13T04:58:33.874Z,0.25
2024-02-13T05:01:06.228Z,0.28
2024-02-13T05:04:02.946Z,0.25
2024-02-13T05:06:48.693Z,0.30
2024-02-13T05:09:16.584Z,0.22
2024-02-13T05:11:43.675Z,0.20
2024-02-13T05:14:10.785Z,0.30
2024-02-13T05:16:39.560Z,0.03
2024-02-13T05:19:08.346Z,0.28
2024-02-13T05:21:36.967Z,0.40
2024-02-13T05:24:04.966Z,0.50
2024-02-13T05:26:32.480Z,0.30
2024-02-13T05:29:00.191Z,0.35
2024-02-13T05:31:28.307Z,0.40
2024-02-13T05:33:55.520Z,0.50
2024-02-13T05:36:22.512Z,0.40
2024-02-13T05:38:51.445Z,0.40
2024-02-13T05:41:18.673Z,0.43
2024-02-13T05:43:45.624Z,0.28
2024-02-13T05:46:12.661Z,0.28
2024-02-13T05:48:42.296Z,0.28
2024-02-13T05:51:15.805Z,0.28
2024-02-13T05:53:45.807Z,0.40
2024-02-13T05:56:14.363Z,0.40
2024-02-13T05:58:47.017Z,0.20
2024-02-13T06:01:14.966Z,0.28
2024-02-13T06:03:42.224Z,0.28
2024-02-13T06:06:10.658Z,0.20
2024-02-13T06:08:37.738Z,0.35
2024-02-13T06:11:06.212Z,0.32
2024-02-13T06:13:35.078Z,0.38
2024-02-13T06:16:02.089Z,0.32
2024-02-13T06:18:29.135Z,0.52
2024-02-13T06:20:56.328Z,0.40
2024-02-13T06:23:23.300Z,0.35
2024-02-13T06:25:50.228Z,0.30
2024-02-13T06:28:17.475Z,0.50
2024-02-13T06:30:45.329Z,0.32
2024-02-13T06:33:13.585Z,0.40
2024-02-13T06:35:41.238Z,0.20
2024-02-13T06:38:08.216Z,0.30
2024-02-13T06:40:35.502Z,0.30
2024-02-13T06:43:03.121Z,0.60
2024-02-13T06:45:30.094Z,0.40
2024-02-13T06:47:57.131Z,0.57
2024-02-13T06:50:24.937Z,0.20
2024-02-13T06:52:57.273Z,0.65
2024-02-13T06:55:24.587Z,0.30
2024-02-13T06:57:51.539Z,0.40
2024-02-13T07:00:18.720Z,0.50
2024-02-13T07:02:45.742Z,0.30
2024-02-13T07:05:13.280Z,0.40
2024-02-13T07:07:46.806Z,0.30
2024-02-13T07:10:16.287Z,0.50
2024-02-13T07:12:44.774Z,0.30
2024-02-13T07:15:12.004Z,0.40
2024-02-13T07:17:48.856Z,0.50
2024-02-13T07:20:24.301Z,0.45
2024-02-13T07:22:52.006Z,0.57
2024-02-13T07:25:19.185Z,0.73
2024-02-13T07:27:46.461Z,0.35
2024-02-13T07:30:14.460Z,0.30
2024-02-13T07:32:41.789Z,0.40
2024-02-13T07:35:09.057Z,0.35
2024-02-13T07:37:35.996Z,0.43
2024-02-13T07:40:03.873Z,0.30
2024-02-13T07:42:30.949Z,0.50
2024-02-13T07:44:57.951Z,0.30
2024-02-13T07:47:27.063Z,0.60
2024-02-13T07:49:59.602Z,0.22
2024-02-13T07:52:26.936Z,0.50
2024-02-13T07:54:53.972Z,0.25
2024-02-13T07:57:21.191Z,0.43
2024-02-13T07:59:48.464Z,0.55
2024-02-13T08:02:15.779Z,0.50
2024-02-13T08:04:43.168Z,0.30
2024-02-13T08:07:10.633Z,0.50
2024-02-13T08:09:37.853Z,0.63
2024-02-13T08:12:07.578Z,0.35
2024-02-13T08:14:35.430Z,0.45
2024-02-13T08:17:03.553Z,0.80
2024-02-13T08:19:30.726Z,0.70
2024-02-13T08:21:57.614Z,0.32
2024-02-13T08:24:24.428Z,0.50
2024-02-13T08:26:51.391Z,0.47
2024-02-13T08:29:18.378Z,0.68
2024-02-13T08:31:45.632Z,0.55
2024-02-13T08:34:12.798Z,0.43
2024-02-13T08:36:40.668Z,0.57
2024-02-13T08:39:07.923Z,0.38
2024-02-13T08:41:35.296Z,0.40
2024-02-13T08:44:02.231Z,0.50
2024-02-13T08:46:29.082Z,0.65
2024-02-13T08:48:56.316Z,0.55
2024-02-13T08:51:30.249Z,0.57
2024-02-13T08:53:57.825Z,0.57
2024-02-13T08:56:24.857Z,0.50
2024-02-13T08:58:53.825Z,0.50
2024-02-13T09:01:24.289Z,0.60
2024-02-13T09:03:53.603Z,0.45
2024-02-13T09:06:21.627Z,0.70
2024-02-13T09:08:49.006Z,0.98
2024-02-13T09:11:16.408Z,0.90
2024-02-13T09:13:43.629Z,0.80
2024-02-13T09:16:13.232Z,0.70
2024-02-13T09:18:42.233Z,0.35
2024-02-13T09:21:11.117Z,0.95
2024-02-13T09:23:38.258Z,0.60
2024-02-13T09:26:05.539Z,0.95
2024-02-13T09:28:32.860Z,0.85
2024-02-13T09:31:00.390Z,0.75
2024-02-13T09:33:28.406Z,0.80
2024-02-13T09:35:56.128Z,0.88
2024-02-13T09:38:24.013Z,1.15
2024-02-13T09:40:51.886Z,0.98
2024-02-13T09:43:22.567Z,1.10
2024-02-13T09:45:50.428Z,1.17
2024-02-13T09:48:17.444Z,1.10
2024-02-13T09:50:44.693Z,1.17
2024-02-13T09:53:17.896Z,1.00
2024-02-13T09:55:45.850Z,1.00
2024-02-13T09:58:13.186Z,1.05
2024-02-13T10:00:40.957Z,1.00
2024-02-13T10:03:08.360Z,1.00
2024-02-13T10:05:35.363Z,0.80
2024-02-13T10:08:02.277Z,0.90
2024-02-13T10:10:30.291Z,1.02
2024-02-13T10:13:01.445Z,1.25
2024-02-13T10:15:41.194Z,1.10
2024-02-13T10:18:09.707Z,1.40
2024-02-13T10:20:38.310Z,1.17
2024-02-13T10:23:05.424Z,1.23
2024-02-13T10:25:35.593Z,1.08
2024-02-13T10:28:03.005Z,1.25
2024-02-13T10:30:31.078Z,1.63
2024-02-13T10:33:02.393Z,1.58
2024-02-13T10:35:33.241Z,1.58
2024-02-13T10:38:00.723Z,1.23
2024-02-13T10:40:29.103Z,1.50
2024-02-13T10:42:56.928Z,1.23
2024-02-13T10:45:25.661Z,1.15
2024-02-13T10:47:55.762Z,1.35
2024-02-13T10:50:26.067Z,1.35
2024-02-13T10:52:56.961Z,1.10
2024-02-13T10:55:24.375Z,1.10
2024-02-13T10:57:52.332Z,1.15
2024-02-13T11:00:22.177Z,1.30
2024-02-13T11:02:50.357Z,1.38
2024-02-13T11:05:17.327Z,1.35
2024-02-13T11:07:45.045Z,1.70
2024-02-13T11:10:12.133Z,1.50
2024-02-13T11:12:39.663Z,1.75
2024-02-13T11:15:18.934Z,1.30
2024-02-13T11:17:53.329Z,1.20
2024-02-13T11:20:23.253Z,1.50
2024-02-13T11:22:54.204Z,1.27
2024-02-13T11:25:27.384Z,1.10
2024-02-13T11:27:59.068Z,1.52
2024-02-13T11:33:07.429Z,1.17
2024-02-13T11:35:57.776Z,1.30
2024-02-13T11:38:26.436Z,1.08
2024-02-13T11:40:56.358Z,1.30
2024-02-13T11:43:33.253Z,1.30
2024-02-13T11:46:01.720Z,1.30
2024-02-13T11:48:32.485Z,1.65
2024-02-13T11:51:04.105Z,1.30
2024-02-13T11:53:32.428Z,1.00
2024-02-13T11:55:59.725Z,1.20
2024-02-13T11:58:27.951Z,1.42
2024-02-13T12:01:01.698Z,1.27
2024-02-13T12:03:29.567Z,1.00
2024-02-13T12:05:57.582Z,1.08
2024-02-13T12:08:29.744Z,1.10
2024-02-13T12:11:03.091Z,1.02
2024-02-13T12:13:32.139Z,1.20
2024-02-13T12:15:59.467Z,1.38
2024-02-13T12:18:31.250Z,1.23
2024-02-13T12:20:59.035Z,1.15
2024-02-13T12:23:26.810Z,1.40
2024-02-13T12:26:01.807Z,1.60
2024-02-13T12:28:29.547Z,1.27
2024-02-13T12:30:56.644Z,1.40
2024-02-13T12:33:25.168Z,1.38
2024-02-13T12:36:07.100Z,1.30
2024-02-13T12:38:37.249Z,1.50
2024-02-13T12:41:05.523Z,1.38
2024-02-13T12:43:32.587Z,1.48
2024-02-13T12:46:06.638Z,1.23
2024-02-13T12:48:40.523Z,1.50
2024-02-13T12:51:11.791Z,1.50
2024-02-13T12:53:41.101Z,1.40
2024-02-13T12:56:10.260Z,1.48
2024-02-13T12:58:38.451Z,1.40
2024-02-13T13:01:05.817Z,1.33
2024-02-13T13:03:35.215Z,1.35
2024-02-13T13:06:02.623Z,1.48
2024-02-13T13:08:30.156Z,1.17
2024-02-13T13:10:56.985Z,1.10
2024-02-13T13:13:24.911Z,1.15
2024-02-13T13:15:52.160Z,1.02
2024-02-13T13:18:24.140Z,1.08
2024-02-13T13:20:57.514Z,1.02
2024-02-13T13:23:25.929Z,1.00
2024-02-13T13:25:56.617Z,0.90
2024-02-13T13:28:24.702Z,0.90
2024-02-13T13:30:55.756Z,0.80
2024-02-13T13:33:24.324Z,0.50
2024-02-13T13:35:52.839Z,1.08
2024-02-13T13:38:22.904Z,0.82
2024-02-13T13:40:50.923Z,0.95
2024-02-13T13:43:17.855Z,0.90
2024-02-13T13:45:57.419Z,1.00
2024-02-13T13:48:25.363Z,1.13
2024-02-13T13:50:52.825Z,0.93
2024-02-13T13:53:20.463Z,1.00
2024-02-13T13:55:47.367Z,0.70
2024-02-13T13:58:14.226Z,0.90
2024-02-13T14:00:44.511Z,0.60
2024-02-13T14:03:12.916Z,0.90
2024-02-13T14:05:40.868Z,0.80
2024-02-13T14:08:08.526Z,1.10
2024-02-13T14:10:35.496Z,1.02
2024-02-13T14:13:02.713Z,1.08
2024-02-13T14:15:30.596Z,0.90
2024-02-13T14:17:59.483Z,0.70
2024-02-13T14:20:26.917Z,0.90
2024-02-13T14:22:58.052Z,0.90
2024-02-13T14:25:28.273Z,0.90
2024-02-13T14:27:55.390Z,0.90
2024-02-13T14:30:22.581Z,0.85
2024-02-13T14:32:49.676Z,0.73
2024-02-13T14:35:19.499Z,0.80
2024-02-13T14:37:46.925Z,0.75
2024-02-13T14:40:14.986Z,0.55
2024-02-13T14:42:44.661Z,0.88
2024-02-13T14:45:12.799Z,0.88
2024-02-13T14:47:40.392Z,0.68
2024-02-13T14:50:08.223Z,0.80
2024-02-13T14:52:38.054Z,0.68
2024-02-13T14:55:05.245Z,0.68
2024-02-13T14:57:33.065Z,0.65
2024-02-13T15:00:05.090Z,0.80
2024-02-13T15:02:34.561Z,0.77
2024-02-13T15:05:01.662Z,0.90
2024-02-13T15:07:31.502Z,0.68
2024-02-13T15:09:59.872Z,0.60
2024-02-13T15:12:27.062Z,0.40
2024-02-13T15:14:54.436Z,0.70
2024-02-13T15:17:21.796Z,0.63
2024-02-13T15:19:48.760Z,0.60
2024-02-13T15:22:18.966Z,0.50
2024-02-13T15:24:46.111Z,0.63
2024-02-13T15:27:12.936Z,0.70
2024-02-13T15:29:43.572Z,0.50
2024-02-13T15:32:10.606Z,0.65
2024-02-13T15:34:42.277Z,0.80
2024-02-13T15:37:09.175Z,0.60
2024-02-13T15:39:55.060Z,0.70
2024-02-13T15:42:42.458Z,0.50
2024-02-13T15:45:29.161Z,0.50
2024-02-13T15:47:56.117Z,0.60
2024-02-13T15:50:24.211Z,0.80
2024-02-13T15:52:51.698Z,0.50
2024-02-13T15:55:20.358Z,0.60
2024-02-13T15:57:48.275Z,0.70
2024-02-13T16:00:20.322Z,0.70
2024-02-13T16:02:47.682Z,0.75
2024-02-13T16:05:18.029Z,0.32
2024-02-13T16:07:45.463Z,0.60
2024-02-13T16:10:12.634Z,0.50
2024-02-13T16:12:40.086Z,0.60
2024-02-13T16:15:09.857Z,0.55
2024-02-13T16:17:37.565Z,0.50
2024-02-13T16:20:06.151Z,0.60
2024-02-13T16:22:35.829Z,0.60
2024-02-13T16:25:07.077Z,0.80
2024-02-13T16:27:34.289Z,0.50
2024-02-13T16:30:01.376Z,0.60
2024-02-13T16:32:35.960Z,0.70
2024-02-13T16:35:09.325Z,0.55
2024-02-13T16:37:36.281Z,0.50
2024-02-13T16:40:04.977Z,0.70
2024-02-13T16:42:33.996Z,0.80
2024-02-13T16:45:01.333Z,0.82
2024-02-13T16:47:28.421Z,0.90
2024-02-13T16:49:57.586Z,0.80
2024-02-13T16:52:24.690Z,0.80
2024-02-13T16:54:53.552Z,0.88
2024-02-13T16:57:20.808Z,0.60
2024-02-13T16:59:47.700Z,0.63
2024-02-13T17:02:16.181Z,0.85
2024-02-13T17:04:44.392Z,0.80
2024-02-13T17:07:11.478Z,0.73
2024-02-13T17:09:38.599Z,0.73
2024-02-13T17:12:05.733Z,0.63
2024-02-13T17:14:32.757Z,0.85
2024-02-13T17:16:59.813Z,0.88
2024-02-13T17:19:27.224Z,0.80
2024-02-13T17:21:54.100Z,0.90
2024-02-13T17:24:22.646Z,1.00
2024-02-13T17:26:49.744Z,1.00
2024-02-13T17:29:16.581Z,1.02
2024-02-13T17:31:43.575Z,0.85
2024-02-13T17:34:10.644Z,1.23
2024-02-13T17:36:37.655Z,1.10
2024-02-13T17:39:06.610Z,1.00
2024-02-13T17:41:34.356Z,1.17
2024-02-13T17:44:01.251Z,0.90
2024-02-13T17:46:28.280Z,1.17
2024-02-13T17:48:55.254Z,1.00
2024-02-13T17:51:22.139Z,1.10
2024-02-13T17:53:49.027Z,0.98
2024-02-13T17:56:16.480Z,1.10
2024-02-13T17:58:43.648Z,1.02
2024-02-13T18:01:11.469Z,1.10
2024-02-13T18:03:38.426Z,1.17
2024-02-13T18:06:05.763Z,1.58
2024-02-13T18:08:34.659Z,1.58
2024-02-13T18:11:01.794Z,2.38
2024-02-13T18:13:30.698Z,1.70
2024-02-13T18:15:58.523Z,1.83
2024-02-13T18:18:27.970Z,2.03
2024-02-13T18:20:55.411Z,2.22
2024-02-13T18:23:22.588Z,2.78
2024-02-13T18:25:49.577Z,2.72
2024-02-13T18:28:18.199Z,2.78
2024-02-13T18:30:46.343Z,2.83
2024-02-13T18:33:14.187Z,2.28
2024-02-13T18:35:44.676Z,2.30
2024-02-13T18:38:14.625Z,2.50
2024-02-13T18:40:41.570Z,2.00
2024-02-13T18:43:08.487Z,2.00
2024-02-13T18:45:35.697Z,1.92
2024-02-13T18:48:02.718Z,1.77
2024-02-13T18:50:29.707Z,2.00
2024-02-13T18:52:56.728Z,1.73
2024-02-13T18:55:23.582Z,2.00
2024-02-13T18:57:52.865Z,2.00
2024-02-13T19:00:19.723Z,1.98
2024-02-13T19:02:46.588Z,2.20
2024-02-13T19:05:13.599Z,2.42
2024-02-13T19:07:40.521Z,2.00
2024-02-13T19:10:07.818Z,2.00
2024-02-13T19:12:34.874Z,1.92
2024-02-13T19:15:02.157Z,1.90
2024-02-13T19:17:30.818Z,2.13
2024-02-13T19:19:57.728Z,2.03
2024-02-13T19:22:25.029Z,1.73
2024-02-13T19:24:52.042Z,2.10
2024-02-13T19:27:18.911Z,1.80
2024-02-13T19:29:46.266Z,1.70
2024-02-13T19:32:13.150Z,2.33
2024-02-13T19:34:40.026Z,1.92
2024-02-13T19:37:06.950Z,1.50
2024-02-13T19:39:37.966Z,1.63
2024-02-13T19:42:05.207Z,1.80
2024-02-13T19:44:32.151Z,1.63
2024-02-13T19:46:59.027Z,1.67
2024-02-13T19:49:26.673Z,1.83
2024-02-13T19:51:53.518Z,1.38
2024-02-13T19:54:20.402Z,2.08
2024-02-13T19:56:49.966Z,2.30
2024-02-13T19:59:17.205Z,1.80
2024-02-13T20:01:44.062Z,1.23
2024-02-13T20:04:11.227Z,1.45
2024-02-13T20:06:39.007Z,1.70
2024-02-13T20:09:09.490Z,1.13
2024-02-13T20:11:36.526Z,1.50
2024-02-13T20:14:04.457Z,1.30
2024-02-13T20:16:31.287Z,1.80
2024-02-13T20:19:01.496Z,1.80
2024-02-13T20:21:29.081Z,1.25
2024-02-13T20:23:56.214Z,1.65
2024-02-13T20:26:23.092Z,1.30
2024-02-13T20:28:50.159Z,1.60
2024-02-13T20:31:17.047Z,1.20
2024-02-13T20:33:44.238Z,1.67
2024-02-13T20:36:11.284Z,1.90
2024-02-13T20:38:39.080Z,1.92
2024-02-13T20:41:09.479Z,1.63
2024-02-13T20:43:40.590Z,1.38
2024-02-13T20:46:07.422Z,1.85
2024-02-13T20:48:34.362Z,1.40
2024-02-13T20:51:02.219Z,1.70
2024-02-13T20:53:29.139Z,1.60
2024-02-13T20:56:02.412Z,2.13
2024-02-13T20:58:30.150Z,1.70
2024-02-13T21:00:57.123Z,1.85
2024-02-13T21:03:24.116Z,1.30
2024-02-13T21:05:53.011Z,1.30
2024-02-13T21:08:21.615Z,1.50
2024-02-13T21:10:48.513Z,1.88
2024-02-13T21:13:15.389Z,1.40
2024-02-13T21:15:42.209Z,1.52
2024-02-13T21:18:09.944Z,1.38
2024-02-13T21:20:43.836Z,1.67
2024-02-13T21:23:29.826Z,1.73
2024-02-13T21:25:57.217Z,1.42
2024-02-13T21:28:25.597Z,1.75
2024-02-13T21:30:53.024Z,1.40
2024-02-13T21:33:20.164Z,1.70
2024-02-13T21:35:47.226Z,1.50
2024-02-13T21:38:14.877Z,1.45
2024-02-13T21:40:42.685Z,1.85
2024-02-13T21:43:09.770Z,2.22
2024-02-13T21:45:37.596Z,1.70
2024-02-13T21:48:05.584Z,1.40
2024-02-13T21:50:33.186Z,1.98
2024-02-13T21:53:00.074Z,1.80
2024-02-13T21:55:26.959Z,2.40
2024-02-13T21:57:53.792Z,1.77
2024-02-13T22:00:21.694Z,1.52
2024-02-13T22:02:48.673Z,1.40
2024-02-13T22:05:15.802Z,1.42
2024-02-13T22:07:42.776Z,1.98
2024-02-13T22:10:12.516Z,1.75
2024-02-13T22:12:45.100Z,1.60
2024-02-13T22:15:15.256Z,1.63
2024-02-13T22:17:42.374Z,1.27
2024-02-13T22:20:09.659Z,1.85
2024-02-13T22:22:36.475Z,1.40
2024-02-13T22:25:03.861Z,1.35
2024-02-13T22:27:30.852Z,1.65
2024-02-13T22:29:58.542Z,1.10
2024-02-13T22:32:26.015Z,1.10
2024-02-13T22:34:56.374Z,1.35
2024-02-13T22:37:24.609Z,1.63
2024-02-13T22:39:51.707Z,1.73
2024-02-13T22:42:18.989Z,1.67
2024-02-13T22:44:45.899Z,1.40
2024-02-13T22:47:12.821Z,2.45
2024-02-13T22:49:39.699Z,1.80
2024-02-13T22:52:06.703Z,1.52
2024-02-13T22:54:33.965Z,1.80
2024-02-13T22:57:00.957Z,1.88
2024-02-13T22:59:27.908Z,1.63
2024-02-13T23:01:55.101Z,1.98
2024-02-13T23:04:22.125Z,1.75
2024-02-13T23:06:49.478Z,2.03
2024-02-13T23:09:18.357Z,1.90
2024-02-13T23:11:45.699Z,1.98
2024-02-13T23:14:13.230Z,1.85
2024-02-13T23:16:41.700Z,2.08
2024-02-13T23:19:10.325Z,1.73
2024-02-13T23:21:37.942Z,1.80
2024-02-13T23:24:08.006Z,1.73
2024-02-13T23:26:35.120Z,2.15
2024-02-13T23:29:02.054Z,2.42
2024-02-13T23:31:28.889Z,1.70
2024-02-13T23:33:55.861Z,2.38
2024-02-13T23:36:22.824Z,2.03
2024-02-13T23:38:50.430Z,2.45
2024-02-13T23:41:17.391Z,2.42
2024-02-13T23:43:44.860Z,1.77
2024-02-13T23:46:11.701Z,2.53
2024-02-13T23:48:39.937Z,2.33
2024-02-13T23:51:07.106Z,2.13
2024-02-13T23:53:34.164Z,2.10
2024-02-13T23:56:01.938Z,2.85
2024-02-13T23:58:28.979Z,3.10
